Arvilla, North Dakota
Current Conditions -  °F | °C
As of 11:58 PM on Friday 19 Dec 2014 (Local Time) from KRDR Reporting Station
Overcast Overcast  
Wind Chill: 23°   Ceiling: 900
Heat Index: 29°   Visibility: 10mi
Dew Point: 29°   Wind: 6mph
Humidity: 100%   Direction: 250°WSW
Pressure: 30"   Gusts: NA
Location:  47.92°N, 97.49°W
Report Text: KRDR 200558Z 25005KT 10SM OVC009 M01/M01 A3000 RMK AO2A SLP177 T10151015 11014 21020 410141066 53001
Loading
Personal Weather Stations






























Interactive Weather Map New forecast layout! Learn more

10-Day Weather Forecast

Advertisements
Track Severe Weather on mobile